createdAt,value
2023-03-31T00:00:28.462Z,18.80
2023-03-31T00:03:11.804Z,19.80
2023-03-31T00:05:39.935Z,17.70
2023-03-31T00:08:07.530Z,17.60
2023-03-31T00:10:35.123Z,21.50
2023-03-31T00:13:02.743Z,23.80
2023-03-31T00:15:30.485Z,20.80
2023-03-31T00:17:58.074Z,20.00
2023-03-31T00:20:25.842Z,21.70
2023-03-31T00:22:53.631Z,16.40
2023-03-31T00:25:21.279Z,22.60
2023-03-31T00:27:49.053Z,21.70
2023-03-31T00:30:16.862Z,25.40
2023-03-31T00:32:44.613Z,22.80
2023-03-31T00:35:12.199Z,24.00
2023-03-31T00:37:39.759Z,21.00
2023-03-31T00:40:07.975Z,24.80
2023-03-31T00:42:43.567Z,24.40
2023-03-31T00:45:14.104Z,24.20
2023-03-31T00:47:48.639Z,22.20
2023-03-31T00:50:19.920Z,23.30
2023-03-31T00:52:52.026Z,17.90
2023-03-31T00:55:25.672Z,25.60
2023-03-31T00:57:54.116Z,24.30
2023-03-31T01:00:21.699Z,27.40
2023-03-31T01:02:54.099Z,23.90
2023-03-31T01:05:25.900Z,31.00
2023-03-31T01:07:55.181Z,20.30
2023-03-31T01:10:22.763Z,23.00
2023-03-31T01:12:54.103Z,25.80
2023-03-31T01:15:22.382Z,22.50
2023-03-31T01:17:52.493Z,29.00
2023-03-31T01:20:51.777Z,21.10
2023-03-31T01:23:50.245Z,23.50
2023-03-31T01:26:34.501Z,29.90
2023-03-31T01:29:20.766Z,26.80
2023-03-31T01:32:19.021Z,22.60
2023-03-31T01:35:15.434Z,25.60
2023-03-31T01:38:04.406Z,20.20
2023-03-31T01:40:42.969Z,20.40
2023-03-31T01:43:20.220Z,26.60
2023-03-31T01:46:12.139Z,27.50
2023-03-31T01:49:00.598Z,27.10
2023-03-31T01:51:45.791Z,28.10
2023-03-31T01:54:44.793Z,27.50
2023-03-31T01:57:18.685Z,14.00
2023-03-31T02:00:01.576Z,18.80
2023-03-31T02:02:37.356Z,19.30
2023-03-31T02:05:12.584Z,19.30
2023-03-31T02:07:56.928Z,24.20
2023-03-31T02:10:27.534Z,19.00
2023-03-31T02:12:57.073Z,19.40
2023-03-31T02:15:29.108Z,20.90
2023-03-31T02:17:59.332Z,20.50
2023-03-31T02:22:57.589Z,16.80
2023-03-31T02:25:40.316Z,21.20
2023-03-31T02:28:12.068Z,17.50
2023-03-31T02:30:53.389Z,15.50
2023-03-31T02:33:21.041Z,16.50
2023-03-31T02:35:48.729Z,17.50
2023-03-31T02:38:16.336Z,21.50
2023-03-31T02:40:43.953Z,14.10
2023-03-31T02:43:11.784Z,18.50
2023-03-31T02:45:50.606Z,15.90
2023-03-31T02:48:24.984Z,16.40
2023-03-31T02:51:08.762Z,17.90
2023-03-31T02:53:43.339Z,17.20
2023-03-31T02:56:25.884Z,20.40
2023-03-31T02:59:15.654Z,19.70
2023-03-31T03:02:04.970Z,14.70
2023-03-31T03:04:47.477Z,13.60
2023-03-31T03:10:15.280Z,17.90
2023-03-31T03:13:05.461Z,13.80
2023-03-31T03:15:38.052Z,16.60
2023-03-31T03:18:06.250Z,18.60
2023-03-31T03:20:33.856Z,24.20
2023-03-31T03:23:02.352Z,19.90
2023-03-31T03:25:29.947Z,15.60
2023-03-31T03:27:57.630Z,17.10
2023-03-31T03:30:25.693Z,18.60
2023-03-31T03:32:53.357Z,12.00
2023-03-31T03:35:20.944Z,16.80
2023-03-31T03:37:48.518Z,20.90
2023-03-31T03:40:16.250Z,15.30
2023-03-31T03:42:43.847Z,15.90
2023-03-31T03:45:11.466Z,15.30
2023-03-31T03:47:39.108Z,17.00
2023-03-31T03:50:07.604Z,16.30
2023-03-31T03:52:35.184Z,22.20
2023-03-31T03:55:02.774Z,17.10
2023-03-31T03:57:30.405Z,20.90
2023-03-31T03:59:58.170Z,19.70
2023-03-31T04:02:28.027Z,15.90
2023-03-31T04:04:55.792Z,17.60
2023-03-31T04:07:23.442Z,20.80
2023-03-31T04:09:50.993Z,16.80
2023-03-31T04:12:18.544Z,14.00
2023-03-31T04:14:46.104Z,19.20
2023-03-31T04:17:13.690Z,16.80
2023-03-31T04:19:41.919Z,15.30
2023-03-31T04:22:09.473Z,17.30
2023-03-31T04:24:37.968Z,16.70
2023-03-31T04:27:05.615Z,20.00
2023-03-31T04:29:33.270Z,15.30
2023-03-31T04:32:01.592Z,12.40
2023-03-31T04:34:29.148Z,16.20
2023-03-31T04:36:56.742Z,17.00
2023-03-31T04:39:24.310Z,16.60
2023-03-31T04:41:52.764Z,16.80
2023-03-31T04:44:20.307Z,17.20
2023-03-31T04:46:47.901Z,14.10
2023-03-31T04:49:15.657Z,19.40
2023-03-31T04:51:43.244Z,18.20
2023-03-31T04:54:10.896Z,14.60
2023-03-31T04:56:38.452Z,15.90
2023-03-31T04:59:06.133Z,14.60
2023-03-31T05:01:33.813Z,14.40
2023-03-31T05:04:02.309Z,12.00
2023-03-31T05:06:29.998Z,17.50
2023-03-31T05:08:57.710Z,17.10
2023-03-31T05:11:25.303Z,17.00
2023-03-31T05:13:53.200Z,12.40
2023-03-31T05:16:20.886Z,15.10
2023-03-31T05:18:48.469Z,17.10
2023-03-31T05:21:18.988Z,15.60
2023-03-31T05:23:47.325Z,16.50
2023-03-31T05:26:15.595Z,16.40
2023-03-31T05:28:43.987Z,19.70
2023-03-31T05:31:12.267Z,16.70
2023-03-31T05:33:39.811Z,14.50
2023-03-31T05:36:09.772Z,13.00
2023-03-31T05:38:38.139Z,11.60
2023-03-31T05:41:06.100Z,16.00
2023-03-31T05:43:33.702Z,14.80
2023-03-31T05:46:02.029Z,12.10
2023-03-31T05:48:29.696Z,16.60
2023-03-31T05:50:59.378Z,13.20
2023-03-31T05:53:27.909Z,15.60
2023-03-31T05:55:59.783Z,16.30
2023-03-31T05:58:28.110Z,11.80
2023-03-31T06:01:07.594Z,11.60
2023-03-31T06:03:37.521Z,13.80
2023-03-31T06:06:05.810Z,12.10
2023-03-31T06:08:36.703Z,14.30
2023-03-31T06:11:08.824Z,10.60
2023-03-31T06:13:37.565Z,9.50
2023-03-31T06:16:05.967Z,10.80
2023-03-31T06:18:35.079Z,12.80
2023-03-31T06:21:04.163Z,10.70
2023-03-31T06:23:32.692Z,9.30
2023-03-31T06:26:02.238Z,10.00
2023-03-31T06:28:30.355Z,11.20
2023-03-31T06:31:06.519Z,9.50
2023-03-31T06:33:34.833Z,12.10
2023-03-31T06:36:02.684Z,11.30
2023-03-31T06:38:30.238Z,8.20
2023-03-31T06:40:57.775Z,13.60
2023-03-31T06:43:25.610Z,7.50
2023-03-31T06:45:54.075Z,9.60
2023-03-31T06:48:23.626Z,5.80
2023-03-31T06:50:53.042Z,8.20
2023-03-31T06:53:21.777Z,9.20
2023-03-31T06:55:49.424Z,6.70
2023-03-31T06:58:16.967Z,8.30
2023-03-31T07:00:44.548Z,7.50
2023-03-31T07:03:13.337Z,7.60
2023-03-31T07:05:41.017Z,8.30
2023-03-31T07:08:08.561Z,5.50
2023-03-31T07:10:36.119Z,6.50
2023-03-31T07:13:05.621Z,5.90
2023-03-31T07:15:33.381Z,6.50
2023-03-31T07:18:00.982Z,7.80
2023-03-31T07:20:29.817Z,6.80
2023-03-31T07:22:57.579Z,7.10
2023-03-31T07:25:25.539Z,7.40
2023-03-31T07:27:53.115Z,8.40
2023-03-31T07:30:21.229Z,4.80
2023-03-31T07:32:50.518Z,5.00
2023-03-31T07:35:19.347Z,8.10
2023-03-31T07:37:48.362Z,7.40
2023-03-31T07:40:24.943Z,5.50
2023-03-31T07:42:52.837Z,5.30
2023-03-31T07:45:22.935Z,4.80
2023-03-31T07:47:51.199Z,6.30
2023-03-31T07:50:19.387Z,5.60
2023-03-31T07:52:47.269Z,4.10
2023-03-31T07:55:15.995Z,7.40
2023-03-31T07:57:43.724Z,8.60
2023-03-31T08:00:12.004Z,5.20
2023-03-31T08:02:40.906Z,6.20
2023-03-31T08:05:11.315Z,5.30
2023-03-31T08:07:41.743Z,5.70
2023-03-31T08:10:12.336Z,5.60
2023-03-31T08:12:39.889Z,4.50
2023-03-31T08:15:08.370Z,4.90
2023-03-31T08:17:36.276Z,5.70
2023-03-31T08:20:07.164Z,4.80
2023-03-31T08:22:39.826Z,4.40
2023-03-31T08:25:08.275Z,5.60
2023-03-31T08:27:37.789Z,5.10
2023-03-31T08:30:07.622Z,3.80
2023-03-31T08:32:35.700Z,6.00
2023-03-31T08:35:03.674Z,4.70
2023-03-31T08:37:31.256Z,5.30
2023-03-31T08:39:58.955Z,5.90
2023-03-31T08:42:35.779Z,7.40
2023-03-31T08:45:23.629Z,4.50
2023-03-31T08:48:00.771Z,6.70
2023-03-31T08:50:33.091Z,4.70
2023-03-31T08:53:28.787Z,6.30
2023-03-31T08:55:58.562Z,4.90
2023-03-31T08:58:35.966Z,6.80
2023-03-31T09:01:47.844Z,4.90
2023-03-31T09:04:48.867Z,3.80
2023-03-31T09:07:42.557Z,4.90
2023-03-31T09:10:12.863Z,5.30
2023-03-31T09:12:57.920Z,5.90
2023-03-31T09:15:25.469Z,4.10
2023-03-31T09:17:55.036Z,5.00
2023-03-31T09:23:13.342Z,4.10
2023-03-31T09:25:43.567Z,6.30
2023-03-31T09:28:21.309Z,6.00
2023-03-31T09:30:49.760Z,5.10
2023-03-31T09:33:27.622Z,4.40
2023-03-31T09:35:55.232Z,5.80
2023-03-31T09:38:23.102Z,5.20
2023-03-31T09:40:50.780Z,4.20
2023-03-31T09:43:28.937Z,6.70
2023-03-31T09:46:09.196Z,7.40
2023-03-31T09:48:51.747Z,4.40
2023-03-31T09:51:30.755Z,5.10
2023-03-31T09:54:07.420Z,7.10
2023-03-31T09:56:43.959Z,3.40
2023-03-31T09:59:21.735Z,4.40
2023-03-31T10:01:56.606Z,4.40
2023-03-31T10:04:27.922Z,4.30
2023-03-31T10:06:56.177Z,4.00
2023-03-31T10:09:30.144Z,3.60
2023-03-31T10:12:07.014Z,4.60
2023-03-31T10:14:45.190Z,5.20
2023-03-31T10:17:21.200Z,3.30
2023-03-31T10:19:52.296Z,4.70
2023-03-31T10:22:22.572Z,5.10
2023-03-31T10:24:51.958Z,2.70
2023-03-31T10:27:30.729Z,4.40
2023-03-31T10:30:01.206Z,3.90
2023-03-31T10:32:31.360Z,4.40
2023-03-31T10:35:05.907Z,3.50
2023-03-31T10:37:36.571Z,3.90
2023-03-31T10:40:15.190Z,4.60
2023-03-31T10:42:46.769Z,6.20
2023-03-31T10:45:35.688Z,3.50
2023-03-31T10:48:17.990Z,4.90
2023-03-31T10:50:45.950Z,3.80
2023-03-31T10:53:15.362Z,5.20
2023-03-31T10:55:45.646Z,6.00
2023-03-31T10:58:19.001Z,4.10
2023-03-31T11:01:21.766Z,5.60
2023-03-31T11:03:58.035Z,6.00
2023-03-31T11:06:44.604Z,5.50
2023-03-31T11:09:32.188Z,6.30
2023-03-31T11:12:14.858Z,4.50
2023-03-31T11:14:54.711Z,5.60
2023-03-31T11:17:50.301Z,4.30
2023-03-31T11:20:33.471Z,3.50
2023-03-31T11:23:12.983Z,5.30
2023-03-31T11:25:56.420Z,4.80
2023-03-31T11:28:48.830Z,5.00
2023-03-31T11:31:38.349Z,6.50
2023-03-31T11:34:27.017Z,5.40
2023-03-31T11:37:10.530Z,4.50
2023-03-31T11:39:59.790Z,4.10
2023-03-31T11:42:42.408Z,6.40
2023-03-31T11:45:19.483Z,4.00
2023-03-31T11:47:52.331Z,5.40
2023-03-31T11:50:25.170Z,4.60
2023-03-31T11:53:00.704Z,5.10
2023-03-31T11:55:30.872Z,4.50
2023-03-31T11:58:07.068Z,3.70
2023-03-31T12:00:40.859Z,4.90
2023-03-31T12:03:23.480Z,3.90
2023-03-31T12:05:57.661Z,5.60
2023-03-31T12:08:40.900Z,4.50
2023-03-31T12:11:37.884Z,4.50
2023-03-31T12:14:14.593Z,4.30
2023-03-31T12:16:46.275Z,4.00
2023-03-31T12:19:44.530Z,7.40
2023-03-31T12:22:18.768Z,6.50
2023-03-31T12:24:46.738Z,3.90
2023-03-31T12:27:20.758Z,3.90
2023-03-31T12:30:06.989Z,4.60
2023-03-31T12:32:40.778Z,4.90
2023-03-31T12:35:23.669Z,4.50
2023-03-31T12:38:23.782Z,5.60
2023-03-31T12:41:00.295Z,4.00
2023-03-31T12:43:36.906Z,3.50
2023-03-31T12:46:26.303Z,3.60
2023-03-31T12:49:15.833Z,3.90
2023-03-31T12:52:03.968Z,3.40
2023-03-31T12:54:40.799Z,4.60
2023-03-31T12:57:08.411Z,5.70
2023-03-31T12:59:38.428Z,3.20
2023-03-31T13:02:15.476Z,5.30
2023-03-31T13:04:44.269Z,5.90
2023-03-31T13:07:29.136Z,3.70
2023-03-31T13:10:27.350Z,3.20
2023-03-31T13:13:16.231Z,3.30
2023-03-31T13:15:55.774Z,4.90
2023-03-31T13:18:24.018Z,5.40
2023-03-31T13:23:36.778Z,5.70
2023-03-31T13:26:05.036Z,4.30
2023-03-31T13:28:44.069Z,4.30
2023-03-31T13:31:14.408Z,5.80
2023-03-31T13:33:58.553Z,5.10
2023-03-31T13:36:49.205Z,4.80
2023-03-31T13:39:46.135Z,6.30
2023-03-31T13:42:19.496Z,5.00
2023-03-31T13:45:07.676Z,5.10
2023-03-31T13:48:04.471Z,5.80
2023-03-31T13:51:01.068Z,6.00
2023-03-31T13:53:39.187Z,3.90
2023-03-31T13:56:51.860Z,4.10
2023-03-31T13:59:44.562Z,2.40
2023-03-31T14:02:33.237Z,5.80
2023-03-31T14:05:29.793Z,3.70
2023-03-31T14:08:09.561Z,3.70
2023-03-31T14:10:38.975Z,3.00
2023-03-31T14:13:18.996Z,3.70
2023-03-31T14:15:54.399Z,4.20
2023-03-31T14:18:28.440Z,3.80
2023-03-31T14:21:04.661Z,4.10
2023-03-31T14:24:09.894Z,5.90
2023-03-31T14:26:55.933Z,5.60
2023-03-31T14:29:35.500Z,6.60
2023-03-31T14:32:11.857Z,4.40
2023-03-31T14:35:13.811Z,4.40
2023-03-31T14:37:41.562Z,6.10
2023-03-31T14:40:16.026Z,6.40
2023-03-31T14:42:44.276Z,6.50
2023-03-31T14:45:24.572Z,5.80
2023-03-31T14:48:02.613Z,6.60
2023-03-31T14:50:43.190Z,7.90
2023-03-31T14:53:19.882Z,6.60
2023-03-31T14:55:58.139Z,8.40
2023-03-31T14:58:32.031Z,5.80
2023-03-31T15:00:59.725Z,5.20
2023-03-31T15:03:27.588Z,4.70
2023-03-31T15:06:00.731Z,5.80
2023-03-31T15:08:29.739Z,8.40
2023-03-31T15:11:12.926Z,5.40
2023-03-31T15:13:46.994Z,5.60
2023-03-31T15:16:37.609Z,5.80
2023-03-31T15:19:13.690Z,7.20
2023-03-31T15:21:41.306Z,7.70
2023-03-31T15:24:12.326Z,8.60
2023-03-31T15:26:47.989Z,7.20
2023-03-31T15:29:32.947Z,6.20
2023-03-31T15:32:00.665Z,6.00
2023-03-31T15:34:33.152Z,6.00
2023-03-31T15:37:01.242Z,8.20
2023-03-31T15:39:32.761Z,11.70
2023-03-31T15:42:08.054Z,7.80
2023-03-31T15:44:38.619Z,12.00
2023-03-31T15:47:29.457Z,22.40
2023-03-31T15:50:03.723Z,27.00
2023-03-31T15:52:36.901Z,40.70
2023-03-31T15:55:23.162Z,30.70
2023-03-31T15:57:51.832Z,30.90
2023-03-31T16:00:31.645Z,35.20
2023-03-31T16:03:01.710Z,32.60
2023-03-31T16:05:54.437Z,25.20
2023-03-31T16:08:30.791Z,16.70
2023-03-31T16:11:09.708Z,26.00
2023-03-31T16:13:40.050Z,24.50
2023-03-31T16:16:15.290Z,23.40
2023-03-31T16:18:49.288Z,15.40
2023-03-31T16:21:28.900Z,14.00
2023-03-31T16:23:59.550Z,11.00
2023-03-31T16:26:28.824Z,8.50
2023-03-31T16:28:56.747Z,8.00
2023-03-31T16:31:42.507Z,9.40
2023-03-31T16:34:11.350Z,12.00
2023-03-31T16:36:39.198Z,10.70
2023-03-31T16:39:07.015Z,13.20
2023-03-31T16:41:36.993Z,14.80
2023-03-31T16:44:04.606Z,18.60
2023-03-31T16:46:32.211Z,16.30
2023-03-31T16:48:59.813Z,12.20
2023-03-31T16:51:27.439Z,16.00
2023-03-31T16:53:56.861Z,13.20
2023-03-31T16:56:26.507Z,15.20
2023-03-31T16:58:54.028Z,13.20
2023-03-31T17:01:21.635Z,16.30
2023-03-31T17:03:49.835Z,11.70
2023-03-31T17:06:17.635Z,10.40
2023-03-31T17:08:45.256Z,10.10
2023-03-31T17:11:13.730Z,11.50
2023-03-31T17:13:42.769Z,12.70
2023-03-31T17:16:17.359Z,11.30
2023-03-31T17:18:49.396Z,14.40
2023-03-31T17:21:17.288Z,24.60
2023-03-31T17:23:44.953Z,25.50
2023-03-31T17:26:13.514Z,22.50
2023-03-31T17:28:41.738Z,28.70
2023-03-31T17:31:21.278Z,31.10
2023-03-31T17:33:48.948Z,38.80
2023-03-31T17:36:16.988Z,28.30
2023-03-31T17:38:44.601Z,28.80
2023-03-31T17:41:13.413Z,31.40
2023-03-31T17:43:44.865Z,25.40
2023-03-31T17:46:13.444Z,30.00
2023-03-31T17:48:42.253Z,21.20
2023-03-31T17:51:13.235Z,20.80
2023-03-31T17:53:42.137Z,16.50
2023-03-31T17:56:09.866Z,14.60
2023-03-31T17:58:37.769Z,15.10
2023-03-31T18:01:06.790Z,13.10
2023-03-31T18:03:35.434Z,24.80
2023-03-31T18:06:07.498Z,24.70
2023-03-31T18:08:35.497Z,22.40
2023-03-31T18:11:04.587Z,15.20
2023-03-31T18:13:33.823Z,13.50
2023-03-31T18:16:01.454Z,15.70
2023-03-31T18:18:29.171Z,9.10
2023-03-31T18:20:57.032Z,10.40
2023-03-31T18:23:25.036Z,13.00
2023-03-31T18:25:52.642Z,14.20
2023-03-31T18:28:20.667Z,12.00
2023-03-31T18:30:48.782Z,9.70
2023-03-31T18:33:16.566Z,10.50
2023-03-31T18:35:44.599Z,10.10
2023-03-31T18:38:12.696Z,10.30
2023-03-31T18:40:47.781Z,11.10
2023-03-31T18:43:15.666Z,10.10
2023-03-31T18:45:45.530Z,12.50
2023-03-31T18:50:40.642Z,13.70
2023-03-31T18:55:38.109Z,12.30
2023-03-31T18:58:05.670Z,10.50
2023-03-31T19:00:33.296Z,9.50
2023-03-31T19:03:01.334Z,11.50
2023-03-31T19:05:30.179Z,17.80
2023-03-31T19:07:58.996Z,94.10
2023-03-31T19:10:27.270Z,86.70
2023-03-31T19:12:55.189Z,47.70
2023-03-31T19:15:22.958Z,35.20
2023-03-31T19:17:51.145Z,30.30
2023-03-31T19:20:18.923Z,24.70
2023-03-31T19:22:49.214Z,41.30
2023-03-31T19:25:19.201Z,60.80
2023-03-31T19:27:47.610Z,99.10
2023-03-31T19:30:18.545Z,74.00
2023-03-31T19:32:48.419Z,44.20
2023-03-31T19:37:45.910Z,31.90
2023-03-31T19:40:14.145Z,36.40
2023-03-31T19:42:41.768Z,22.50
2023-03-31T19:45:09.688Z,25.30
2023-03-31T19:47:37.289Z,46.50
2023-03-31T19:50:05.315Z,38.80
2023-03-31T19:52:32.956Z,39.60
2023-03-31T19:55:00.651Z,27.60
2023-03-31T19:57:28.380Z,22.40
2023-03-31T19:59:55.925Z,28.20
2023-03-31T20:02:23.649Z,21.60
2023-03-31T20:04:51.489Z,25.80
2023-03-31T20:07:19.365Z,24.70
2023-03-31T20:09:46.916Z,20.60
2023-03-31T20:12:14.515Z,21.80
2023-03-31T20:14:42.165Z,23.20
2023-03-31T20:17:09.986Z,26.90
2023-03-31T20:19:37.542Z,29.50
2023-03-31T20:22:05.220Z,25.00
2023-03-31T20:24:33.212Z,22.10
2023-03-31T20:27:00.760Z,16.60
2023-03-31T20:29:28.384Z,17.70
2023-03-31T20:31:56.156Z,21.80
2023-03-31T20:34:23.855Z,16.20
2023-03-31T20:36:51.446Z,17.00
2023-03-31T20:39:19.493Z,13.30
2023-03-31T20:41:47.678Z,16.20
2023-03-31T20:44:15.980Z,14.70
2023-03-31T20:46:44.469Z,12.60
2023-03-31T20:49:12.434Z,12.00
2023-03-31T20:51:40.240Z,9.30
2023-03-31T20:54:08.152Z,9.00
2023-03-31T20:56:38.269Z,6.60
2023-03-31T20:59:08.710Z,6.30
2023-03-31T21:01:37.242Z,6.20
2023-03-31T21:04:07.314Z,7.90
2023-03-31T21:06:46.661Z,5.90
2023-03-31T21:09:15.791Z,4.70
2023-03-31T21:11:43.470Z,4.90
2023-03-31T21:14:13.627Z,4.80
2023-03-31T21:16:41.493Z,5.20
2023-03-31T21:19:09.257Z,4.40
2023-03-31T21:21:37.283Z,4.10
2023-03-31T21:24:05.268Z,5.80
2023-03-31T21:26:32.846Z,3.90
2023-03-31T21:29:00.411Z,4.30
2023-03-31T21:31:28.005Z,4.30
2023-03-31T21:33:55.610Z,4.40
2023-03-31T21:36:25.023Z,3.60
2023-03-31T21:38:53.862Z,4.30
2023-03-31T21:41:26.496Z,4.30
2023-03-31T21:43:54.175Z,3.90
2023-03-31T21:46:25.098Z,4.90
2023-03-31T21:48:53.682Z,4.70
2023-03-31T21:51:22.428Z,5.80
2023-03-31T21:53:51.402Z,6.20
2023-03-31T21:56:18.998Z,5.80
2023-03-31T21:58:46.565Z,5.20
2023-03-31T22:01:14.363Z,5.50
2023-03-31T22:03:42.131Z,4.40
2023-03-31T22:06:10.555Z,5.80
2023-03-31T22:08:38.769Z,4.70
2023-03-31T22:11:08.150Z,6.10
2023-03-31T22:13:36.540Z,5.90
2023-03-31T22:16:05.494Z,6.60
2023-03-31T22:18:33.052Z,6.20
2023-03-31T22:21:00.629Z,4.30
2023-03-31T22:23:28.244Z,8.90
2023-03-31T22:25:55.879Z,4.60
2023-03-31T22:28:23.393Z,6.90
2023-03-31T22:30:50.955Z,6.10
2023-03-31T22:33:18.590Z,5.20
2023-03-31T22:35:46.171Z,6.60
2023-03-31T22:38:13.757Z,7.50
2023-03-31T22:40:41.437Z,5.50
2023-03-31T22:43:09.076Z,6.40
2023-03-31T22:45:37.060Z,7.10
2023-03-31T22:48:05.764Z,5.00
2023-03-31T22:50:33.356Z,4.90
2023-03-31T22:53:01.257Z,8.30
2023-03-31T22:55:28.853Z,5.90
2023-03-31T22:57:56.433Z,6.40
2023-03-31T23:00:24.050Z,5.60
2023-03-31T23:02:51.622Z,7.30
2023-03-31T23:05:19.216Z,8.00
2023-03-31T23:07:46.784Z,5.70
2023-03-31T23:10:14.309Z,5.20
2023-03-31T23:12:42.132Z,7.10
2023-03-31T23:15:09.720Z,6.50
2023-03-31T23:17:37.324Z,6.10
2023-03-31T23:20:06.015Z,7.40
2023-03-31T23:22:34.246Z,8.80
2023-03-31T23:25:01.940Z,7.30
2023-03-31T23:27:29.558Z,6.60
2023-03-31T23:29:57.236Z,5.80
2023-03-31T23:32:24.911Z,4.30
2023-03-31T23:34:52.461Z,5.10
2023-03-31T23:37:20.037Z,7.00
2023-03-31T23:39:47.598Z,5.50
2023-03-31T23:42:15.166Z,7.40
2023-03-31T23:44:42.706Z,6.60
2023-03-31T23:47:10.265Z,7.10
2023-03-31T23:49:38.106Z,6.00
2023-03-31T23:52:05.686Z,7.00
2023-03-31T23:54:33.281Z,7.50
2023-03-31T23:57:00.962Z,4.80
2023-03-31T23:59:28.546Z,4.90
